Fairmont, Colorado
Current Conditions -  °F | °C
As of 6:53 PM on Friday 28 Nov 2014 (Local Time) from KLHX Reporting Station
Clear Clear  
Wind Chill: 56°   Ceiling: Unl
Heat Index: 56°   Visibility: 10mi
Dew Point: 16°   Wind: 17mph
Humidity: 21%   Direction: 230°SW
Pressure: 29.8"   Gusts: NA
Location:  37.8368°N, 103.544°W
Report Text: KLHX 290153Z AUTO 23015KT 10SM CLR 13/M09 A2980 RMK AO2 SLP072 T01331089
Loading
Personal Weather Stations






























Interactive Weather Map New forecast layout! Learn more

10-Day Weather Forecast

Advertisements
Track Severe Weather on mobile